Time;durP1;ratioP1;P1;durP2;ratioP2;P2;SDS_P1;SDS_P2;PMS_P1;PMS_P2;Temp;Humidity;BMP_temperature;BMP_pressure;BME280_temperature;BME280_humidity;BME280_pressure;Samples;Min_cycle;Max_cycle;Signal;HPM_P1;HPM_P2
2022/01/15 00:00:36;;;;;;;80.70;16.45;;;5.90;99.90;;;;;;5096340;28;20404;-57
2022/01/15 00:03:04;;;;;;;68.35;15.50;;;6.00;99.90;;;;;;5096599;28;20036;-56
2022/01/15 00:05:30;;;;;;;65.72;14.98;;;6.80;99.90;;;;;;5087760;28;20402;-57
2022/01/15 00:08:01;;;;;;;36.38;12.98;;;6.20;99.90;;;;;;5076051;28;20045;-56
2022/01/15 00:10:28;;;;;;;99.05;17.73;;;5.80;99.90;;;;;;5074778;28;20036;-56
2022/01/15 00:12:58;;;;;;;96.55;18.27;;;6.20;99.90;;;;;;5076194;28;20040;-56
2022/01/15 00:15:32;;;;;;;74.28;16.85;;;5.90;99.90;;;;;;5074548;28;20132;-56
2022/01/15 00:18:01;;;;;;;115.82;17.90;;;6.00;99.90;;;;;;5075045;28;20182;-56
2022/01/15 00:20:28;;;;;;;93.13;17.92;;;7.20;99.90;;;;;;5076034;28;20041;-56
2022/01/15 00:22:56;;;;;;;109.20;19.38;;;5.80;99.90;;;;;;5074686;28;20075;-56
2022/01/15 00:25:26;;;;;;;96.35;18.20;;;6.30;99.90;;;;;;5074481;28;20139;-56
2022/01/15 00:27:53;;;;;;;99.53;18.08;;;7.00;99.90;;;;;;5074577;28;20048;-57
2022/01/15 00:30:19;;;;;;;123.55;18.65;;;6.90;99.90;;;;;;5075954;28;20044;-56
2022/01/15 00:32:46;;;;;;;77.03;16.15;;;6.30;99.90;;;;;;5075748;28;20032;-56
2022/01/15 00:35:14;;;;;;;71.82;17.33;;;6.50;99.90;;;;;;5075376;28;20076;-56
2022/01/15 00:37:44;;;;;;;67.68;16.83;;;5.90;99.90;;;;;;5077970;28;20070;-57
2022/01/15 00:40:13;;;;;;;79.63;17.23;;;6.90;99.90;;;;;;5095427;28;20047;-57
2022/01/15 00:42:40;;;;;;;52.35;15.25;;;5.90;99.90;;;;;;5095729;28;20044;-56
2022/01/15 00:45:10;;;;;;;60.80;16.08;;;6.30;99.90;;;;;;5094404;28;20047;-56
2022/01/15 00:47:35;;;;;;;72.95;18.35;;;6.00;99.90;;;;;;5095814;28;20036;-57
2022/01/15 00:50:03;;;;;;;116.28;18.77;;;5.80;99.90;;;;;;5087488;28;20119;-56
2022/01/15 00:52:29;;;;;;;76.10;16.92;;;5.90;99.90;;;;;;5075532;28;20072;-57
2022/01/15 00:54:55;;;;;;;88.85;18.70;;;6.60;99.90;;;;;;5075751;28;20578;-56
2022/01/15 00:57:21;;;;;;;96.65;16.65;;;6.40;99.90;;;;;;5075380;28;20043;-56
2022/01/15 00:59:47;;;;;;;65.68;16.30;;;6.10;99.90;;;;;;5074100;28;20426;-56
2022/01/15 01:02:13;;;;;;;61.20;15.23;;;5.90;99.90;;;;;;5074074;28;20044;-56
2022/01/15 01:04:39;;;;;;;54.58;15.43;;;6.30;99.90;;;;;;5074236;28;20123;-56
2022/01/15 01:07:05;;;;;;;69.35;16.63;;;6.10;99.90;;;;;;5074219;28;20136;-56
2022/01/15 01:09:55;;;;;;;51.63;14.57;;;6.10;99.90;;;;;;5072924;28;20110;-56
2022/01/15 01:23:16;;;;;;;68.85;15.90;;;5.90;99.90;;;;;;5074290;28;20123;-56
2022/01/15 01:25:46;;;;;;;63.47;15.38;;;6.20;99.90;;;;;;5074222;28;20435;-56
2022/01/15 01:28:24;;;;;;;77.65;15.80;;;7.10;99.90;;;;;;5074404;28;20097;-57
2022/01/15 01:30:57;;;;;;;51.53;12.63;;;6.20;99.90;;;;;;5073941;28;20052;-56
2022/01/15 01:38:51;;;;;;;57.47;13.15;;;5.90;99.90;;;;;;5042384;28;20048;-56
2022/01/15 01:41:23;;;;;;;41.55;11.52;;;6.10;99.90;;;;;;5051538;28;20061;-56
2022/01/15 01:44:01;;;;;;;30.67;10.73;;;6.30;99.90;;;;;;5052924;28;20549;-56
2022/01/15 01:48:56;;;;;;;28.80;10.38;;;6.10;99.90;;;;;;5053299;28;20048;-56
2022/01/15 01:51:34;;;;;;;33.53;10.98;;;6.90;99.90;;;;;;5051441;28;20060;-56
2022/01/15 01:54:02;;;;;;;43.95;12.48;;;6.10;99.90;;;;;;5051721;28;20518;-56
2022/01/15 01:56:28;;;;;;;41.80;12.43;;;6.00;99.90;;;;;;5052641;28;20482;-56
2022/01/15 01:58:54;;;;;;;60.47;13.43;;;6.90;99.90;;;;;;5052796;28;20041;-56
2022/01/15 02:01:20;;;;;;;38.75;11.35;;;5.90;99.90;;;;;;5051267;28;20549;-56
2022/01/15 02:03:46;;;;;;;47.15;13.07;;;6.20;99.90;;;;;;5051463;28;20040;-56
2022/01/15 02:06:12;;;;;;;88.17;14.17;;;6.10;99.90;;;;;;5013462;28;1089892;-56
2022/01/15 02:08:38;;;;;;;43.15;12.05;;;6.40;99.90;;;;;;5053586;28;20103;-55
2022/01/15 02:11:05;;;;;;;50.58;12.32;;;6.00;99.90;;;;;;5053859;28;20052;-55
2022/01/15 02:13:32;;;;;;;56.35;13.18;;;6.10;99.90;;;;;;5053703;28;20045;-56
2022/01/15 02:15:59;;;;;;;44.03;12.30;;;6.20;99.90;;;;;;5053845;28;20110;-56
2022/01/15 02:18:27;;;;;;;117.85;16.38;;;6.00;99.90;;;;;;5051443;28;20056;-56
2022/01/15 02:23:36;;;;;;;49.25;13.23;;;6.10;99.90;;;;;;5053474;28;20064;-56
2022/01/15 02:26:05;;;;;;;56.55;13.15;;;5.90;99.90;;;;;;5053548;28;20108;-56
2022/01/15 02:28:38;;;;;;;55.30;12.82;;;6.00;99.90;;;;;;5052325;28;20372;-56
2022/01/15 02:31:10;;;;;;;59.88;13.38;;;6.00;99.90;;;;;;5052136;28;20051;-56
2022/01/15 02:33:37;;;;;;;42.63;12.43;;;5.90;99.90;;;;;;5052048;28;20051;-56
2022/01/15 02:36:05;;;;;;;64.20;13.57;;;6.20;99.90;;;;;;5051967;28;20087;-56
2022/01/15 02:38:31;;;;;;;41.65;11.60;;;5.90;99.90;;;;;;5051444;28;20053;-56
2022/01/15 02:40:56;;;;;;;45.42;12.60;;;6.00;99.90;;;;;;5051601;28;20041;-56
2022/01/15 02:43:29;;;;;;;71.53;13.55;;;6.30;99.90;;;;;;5053146;28;20044;-56
2022/01/15 02:45:57;;;;;;;53.40;12.32;;;6.00;99.90;;;;;;5052877;28;20487;-56
2022/01/15 02:48:27;;;;;;;48.28;12.77;;;6.10;99.90;;;;;;5053329;28;20041;-56
2022/01/15 02:50:55;;;;;;;57.67;13.00;;;6.00;99.90;;;;;;5053269;28;20444;-56
2022/01/15 02:53:21;;;;;;;39.38;12.15;;;6.20;99.90;;;;;;5052914;28;20390;-56
2022/01/15 02:55:49;;;;;;;76.35;14.10;;;6.80;99.90;;;;;;5052576;28;20479;-56
2022/01/15 02:58:17;;;;;;;50.63;12.32;;;5.90;99.90;;;;;;5052550;28;20138;-56
2022/01/15 03:00:44;;;;;;;43.70;12.30;;;5.90;99.90;;;;;;5052842;28;20033;-56
2022/01/15 03:03:10;;;;;;;60.08;12.63;;;6.40;99.90;;;;;;5052520;28;20056;-56
2022/01/15 03:05:36;;;;;;;55.05;12.32;;;6.10;99.90;;;;;;5052769;28;20033;-56
2022/01/15 03:08:02;;;;;;;89.07;16.10;;;6.10;99.90;;;;;;5052577;28;20059;-56
2022/01/15 03:10:28;;;;;;;58.65;13.43;;;5.90;99.90;;;;;;5051510;28;20535;-56
2022/01/15 03:12:55;;;;;;;37.08;12.55;;;6.00;99.90;;;;;;5051345;28;20045;-56
2022/01/15 03:15:21;;;;;;;56.33;13.18;;;5.90;99.90;;;;;;5051477;28;20130;-56
2022/01/15 03:17:48;;;;;;;88.15;15.55;;;5.90;99.90;;;;;;5051448;28;20398;-56
2022/01/15 03:20:16;;;;;;;54.13;14.00;;;6.00;99.90;;;;;;5052761;28;20067;-56
2022/01/15 03:22:42;;;;;;;41.72;12.75;;;5.80;99.90;;;;;;5052524;28;20033;-56
2022/01/15 03:25:08;;;;;;;41.15;13.15;;;6.70;99.90;;;;;;5052461;28;20398;-57
2022/01/15 03:27:34;;;;;;;43.50;12.38;;;5.80;99.90;;;;;;5052513;28;20123;-56
2022/01/15 03:29:59;;;;;;;46.55;10.68;;;6.00;99.90;;;;;;5052434;28;20128;-56
2022/01/15 03:32:25;;;;;;;28.83;8.43;;;5.90;99.90;;;;;;5052174;28;20072;-56
2022/01/15 03:34:51;;;;;;;29.42;7.78;;;6.00;99.90;;;;;;5052017;28;20041;-56
2022/01/15 03:37:17;;;;;;;24.98;7.38;;;5.90;99.90;;;;;;5053084;28;20049;-56
2022/01/15 03:39:44;;;;;;;50.42;8.95;;;6.00;99.90;;;;;;5092055;28;20069;-56
2022/01/15 03:42:13;;;;;;;42.55;8.18;;;6.10;99.90;;;;;;5092159;28;20040;-56
2022/01/15 03:44:44;;;;;;;72.70;9.73;;;6.10;99.90;;;;;;5093183;28;20032;-56
2022/01/15 03:47:11;;;;;;;53.92;9.98;;;5.90;99.90;;;;;;5093275;28;20036;-56
2022/01/15 03:49:37;;;;;;;41.88;9.75;;;5.90;99.90;;;;;;5091443;28;20081;-56
2022/01/15 03:52:04;;;;;;;40.80;9.65;;;6.20;99.90;;;;;;5092301;28;20044;-56
2022/01/15 03:54:30;;;;;;;42.40;10.35;;;5.60;99.90;;;;;;5092205;28;20037;-56
2022/01/15 03:56:56;;;;;;;38.08;9.27;;;5.90;99.90;;;;;;5092029;28;20048;-56
2022/01/15 03:59:22;;;;;;;36.75;9.10;;;5.80;99.90;;;;;;5090585;28;20233;-56
2022/01/15 04:01:49;;;;;;;34.67;8.75;;;5.90;99.90;;;;;;5090587;28;20389;-55
2022/01/15 04:04:14;;;;;;;26.02;7.95;;;6.50;99.90;;;;;;5092157;28;20050;-56
2022/01/15 04:06:41;;;;;;;34.03;9.18;;;6.00;99.90;;;;;;5092115;28;20056;-56
2022/01/15 04:09:07;;;;;;;30.08;7.60;;;6.20;99.90;;;;;;5092126;28;20379;-56
2022/01/15 04:11:34;;;;;;;27.60;7.20;;;5.80;99.90;;;;;;5090678;28;20047;-55
2022/01/15 04:14:01;;;;;;;30.27;7.78;;;6.80;99.90;;;;;;5091683;28;20063;-56
2022/01/15 04:16:28;;;;;;;36.55;7.57;;;6.10;99.90;;;;;;5091938;28;20044;-55
2022/01/15 04:18:55;;;;;;;24.33;6.45;;;5.80;99.90;;;;;;5091682;28;20051;-56
2022/01/15 04:21:21;;;;;;;20.58;6.00;;;5.80;99.90;;;;;;5092223;28;20036;-55
2022/01/15 04:23:47;;;;;;;32.05;6.65;;;5.80;99.90;;;;;;5092121;28;20105;-55
2022/01/15 04:26:12;;;;;;;17.60;5.78;;;5.70;99.90;;;;;;5092058;28;20046;-56
2022/01/15 04:28:40;;;;;;;23.70;5.95;;;5.90;99.90;;;;;;5090748;28;20044;-56
2022/01/15 04:31:07;;;;;;;40.47;6.85;;;5.60;99.90;;;;;;5091882;28;20119;-56
2022/01/15 04:33:38;;;;;;;33.92;5.75;;;5.60;99.90;;;;;;5091762;28;20497;-56
2022/01/15 04:36:06;;;;;;;21.90;4.80;;;6.60;99.90;;;;;;5092012;28;20118;-56
2022/01/15 04:38:36;;;;;;;12.60;4.20;;;5.60;99.90;;;;;;5088177;28;20402;-56
2022/01/15 04:41:02;;;;;;;19.63;4.80;;;5.80;99.90;;;;;;5091731;28;20044;-56
2022/01/15 04:43:28;;;;;;;14.35;4.15;;;6.40;99.90;;;;;;5095100;28;20119;-56
2022/01/15 04:45:54;;;;;;;12.80;4.20;;;6.10;99.90;;;;;;5095633;28;20076;-56
2022/01/15 04:48:20;;;;;;;12.50;3.63;;;6.80;99.90;;;;;;5095809;28;20043;-56
2022/01/15 04:50:45;;;;;;;12.07;4.32;;;5.90;99.90;;;;;;5095792;28;20123;-56
2022/01/15 04:53:11;;;;;;;12.45;3.80;;;5.60;99.90;;;;;;5094322;28;20122;-56
2022/01/15 04:55:38;;;;;;;12.27;3.67;;;5.70;99.90;;;;;;5095790;28;20047;-56
2022/01/15 04:58:06;;;;;;;16.05;4.03;;;6.30;99.90;;;;;;5094317;28;20044;-56
2022/01/15 05:00:33;;;;;;;14.63;3.17;;;5.80;99.90;;;;;;5094449;28;20047;-56
2022/01/15 05:02:59;;;;;;;9.38;2.92;;;6.50;99.90;;;;;;5094357;28;20503;-56
2022/01/15 05:05:26;;;;;;;10.27;2.75;;;5.80;99.90;;;;;;5095746;28;20032;-56
2022/01/15 05:07:53;;;;;;;12.10;3.42;;;6.50;99.90;;;;;;5095540;28;20131;-56
2022/01/15 05:10:23;;;;;;;8.57;3.10;;;6.00;99.90;;;;;;5094437;28;20128;-55
2022/01/15 05:12:49;;;;;;;9.40;3.25;;;5.80;99.90;;;;;;5096081;28;20051;-56
2022/01/15 05:15:18;;;;;;;19.88;3.97;;;5.70;99.90;;;;;;5094181;28;20052;-56
2022/01/15 05:17:45;;;;;;;11.27;3.38;;;6.20;99.90;;;;;;5094223;28;20481;-56
2022/01/15 05:20:16;;;;;;;12.27;3.20;;;6.30;99.90;;;;;;5093874;28;20044;-56
2022/01/15 05:22:42;;;;;;;7.85;2.45;;;5.50;99.90;;;;;;5095267;28;20036;-56
2022/01/15 05:25:08;;;;;;;9.23;2.30;;;5.70;99.90;;;;;;5095103;28;20044;-56
2022/01/15 05:27:37;;;;;;;16.75;3.28;;;5.50;99.90;;;;;;5095442;28;20048;-56
2022/01/15 05:30:04;;;;;;;9.63;2.67;;;5.50;99.90;;;;;;5095060;28;20036;-56
2022/01/15 05:32:30;;;;;;;8.90;2.47;;;5.50;99.90;;;;;;5094800;28;20044;-56
2022/01/15 05:34:57;;;;;;;6.00;2.10;;;5.60;99.90;;;;;;5095046;28;20035;-57
2022/01/15 05:37:24;;;;;;;8.75;2.53;;;5.50;99.90;;;;;;5091679;28;20138;-56
2022/01/15 05:39:49;;;;;;;14.35;2.85;;;5.50;99.90;;;;;;5094700;28;20083;-56
2022/01/15 05:42:15;;;;;;;8.48;2.78;;;5.70;99.90;;;;;;5094712;28;20076;-56
2022/01/15 05:44:41;;;;;;;5.78;2.10;;;6.30;99.90;;;;;;5094928;28;20036;-56
2022/01/15 05:47:08;;;;;;;9.15;2.25;;;5.70;99.90;;;;;;5094715;28;20031;-56
2022/01/15 05:49:35;;;;;;;15.48;2.80;;;5.50;99.90;;;;;;5093865;28;20075;-56
2022/01/15 05:52:01;;;;;;;6.57;2.80;;;5.60;99.90;;;;;;5093816;28;20070;-56
2022/01/15 05:54:26;;;;;;;6.43;2.60;;;5.60;99.90;;;;;;5093631;28;20036;-56
2022/01/15 05:56:52;;;;;;;7.65;3.00;;;5.50;99.90;;;;;;5077018;28;20101;-56
2022/01/15 05:59:18;;;;;;;13.32;3.53;;;6.50;99.90;;;;;;5093374;28;20044;-56
2022/01/15 06:01:43;;;;;;;16.63;4.03;;;6.30;99.90;;;;;;5094935;28;20051;-56
2022/01/15 06:04:09;;;;;;;12.23;3.78;;;5.50;99.90;;;;;;5094677;28;20040;-56
2022/01/15 06:06:35;;;;;;;7.20;2.92;;;5.50;99.90;;;;;;5094546;28;20144;-56
2022/01/15 06:09:02;;;;;;;5.82;2.65;;;5.50;99.90;;;;;;5094327;28;20047;-56
2022/01/15 06:11:28;;;;;;;7.38;3.30;;;5.40;99.90;;;;;;5094653;28;20039;-56
2022/01/15 06:13:54;;;;;;;10.60;3.47;;;5.50;99.90;;;;;;5094691;28;20244;-56
2022/01/15 06:16:20;;;;;;;14.98;4.70;;;6.40;99.90;;;;;;5093666;28;20498;-56
2022/01/15 06:18:45;;;;;;;13.48;4.28;;;5.30;99.90;;;;;;5094776;28;20141;-56
2022/01/15 06:21:11;;;;;;;13.27;4.13;;;5.40;99.90;;;;;;5094444;28;20040;-56
2022/01/15 06:23:37;;;;;;;9.85;3.58;;;6.40;99.90;;;;;;5094475;28;20042;-56
2022/01/15 06:26:02;;;;;;;19.98;4.35;;;6.20;99.90;;;;;;5093007;28;20036;-56
2022/01/15 06:28:28;;;;;;;17.05;4.15;;;5.60;99.90;;;;;;5093120;28;20143;-56
2022/01/15 06:30:54;;;;;;;10.82;3.72;;;5.90;99.90;;;;;;5093005;28;20051;-56
2022/01/15 06:33:19;;;;;;;12.73;4.28;;;5.70;99.90;;;;;;5094074;28;20048;-56
2022/01/15 06:35:45;;;;;;;17.63;4.38;;;6.10;99.90;;;;;;5094173;28;20079;-56
2022/01/15 06:38:11;;;;;;;17.77;4.05;;;5.40;99.90;;;;;;5090680;28;20048;-56
2022/01/15 06:40:37;;;;;;;23.33;4.63;;;5.30;99.90;;;;;;5088778;28;20126;-56
2022/01/15 06:43:04;;;;;;;9.90;3.35;;;5.40;99.90;;;;;;5084304;28;20039;-56
2022/01/15 06:45:30;;;;;;;10.35;4.15;;;6.00;99.90;;;;;;5078612;28;20036;-56
2022/01/15 06:47:56;;;;;;;18.73;4.80;;;5.50;99.90;;;;;;5082694;28;20552;-56
2022/01/15 06:50:25;;;;;;;18.15;4.30;;;6.40;99.90;;;;;;5081955;28;20043;-56
2022/01/15 06:52:51;;;;;;;13.73;4.85;;;5.50;99.90;;;;;;5078309;28;20081;-56
2022/01/15 06:55:17;;;;;;;19.08;4.93;;;6.20;99.90;;;;;;5082422;28;20044;-56
2022/01/15 06:57:43;;;;;;;12.18;4.07;;;5.40;99.90;;;;;;5081837;28;20119;-56
2022/01/15 07:00:11;;;;;;;16.40;4.18;;;5.40;99.90;;;;;;5081942;28;20131;-56
2022/01/15 07:02:37;;;;;;;12.95;3.85;;;5.30;99.90;;;;;;5082405;28;20072;-56
2022/01/15 07:05:04;;;;;;;28.88;4.88;;;5.40;99.90;;;;;;5078817;28;20072;-56
2022/01/15 07:07:30;;;;;;;21.33;4.78;;;5.30;99.90;;;;;;5071044;28;20486;-56
2022/01/15 07:09:55;;;;;;;13.75;4.55;;;5.40;99.90;;;;;;5072429;28;20053;-55
2022/01/15 07:12:21;;;;;;;15.45;4.95;;;5.80;99.90;;;;;;5072480;28;20050;-56
2022/01/15 07:14:47;;;;;;;22.33;5.45;;;5.30;99.90;;;;;;5072509;28;20502;-56
2022/01/15 07:17:13;;;;;;;19.13;6.30;;;5.30;99.90;;;;;;5072578;28;20398;-56
2022/01/15 07:19:38;;;;;;;31.27;7.40;;;5.50;99.90;;;;;;5072234;28;20128;-56
2022/01/15 07:22:05;;;;;;;27.50;6.47;;;5.50;99.90;;;;;;5072449;28;20094;-56
2022/01/15 07:24:32;;;;;;;21.52;6.03;;;5.20;99.90;;;;;;5072505;28;20433;-56
2022/01/15 07:26:57;;;;;;;17.17;5.43;;;5.50;99.90;;;;;;5072434;28;20054;-57
2022/01/15 07:29:24;;;;;;;35.70;7.68;;;5.40;99.90;;;;;;5072671;28;20123;-56
2022/01/15 07:31:52;;;;;;;20.02;5.97;;;5.20;99.90;;;;;;5073088;28;20036;-56
2022/01/15 07:34:19;;;;;;;27.80;5.90;;;5.60;99.90;;;;;;5073079;28;20048;-56
2022/01/15 07:36:50;;;;;;;23.55;5.93;;;5.40;99.90;;;;;;5072637;28;20082;-55
2022/01/15 07:39:16;;;;;;;33.85;7.72;;;6.40;99.90;;;;;;5088671;28;20101;-56
2022/01/15 07:41:42;;;;;;;26.17;6.13;;;5.90;99.90;;;;;;5092845;28;20040;-56
2022/01/15 07:44:08;;;;;;;32.08;6.25;;;5.70;99.90;;;;;;5089407;28;20495;-56
2022/01/15 07:46:33;;;;;;;31.42;6.45;;;6.20;99.90;;;;;;5081609;28;20036;-56
2022/01/15 07:48:59;;;;;;;39.30;6.82;;;5.40;99.90;;;;;;5081955;28;20504;-56
2022/01/15 07:51:25;;;;;;;20.52;5.70;;;5.50;99.90;;;;;;5079019;28;20036;-57
2022/01/15 07:53:51;;;;;;;22.40;6.82;;;5.50;99.90;;;;;;5072385;28;20036;-57
2022/01/15 07:56:17;;;;;;;28.90;6.68;;;6.40;99.90;;;;;;5072403;28;20116;-56
2022/01/15 07:58:42;;;;;;;22.73;6.72;;;6.30;99.90;;;;;;5070497;28;20047;-57
2022/01/15 08:01:08;;;;;;;20.08;6.20;;;5.60;99.90;;;;;;5071740;28;20036;-57
2022/01/15 08:03:34;;;;;;;22.23;6.47;;;5.40;99.90;;;;;;5070626;28;20391;-56
2022/01/15 08:06:00;;;;;;;21.25;6.80;;;5.40;99.90;;;;;;5072118;28;20036;-57
2022/01/15 08:08:25;;;;;;;26.70;6.60;;;5.50;99.90;;;;;;5054247;28;20056;-56
2022/01/15 08:10:51;;;;;;;14.00;5.15;;;5.70;99.90;;;;;;5070896;28;20455;-56
2022/01/15 08:13:18;;;;;;;16.73;4.10;;;5.60;99.90;;;;;;5083295;28;20111;-56
2022/01/15 08:15:44;;;;;;;18.20;4.40;;;5.40;99.90;;;;;;5081833;28;20059;-56
2022/01/15 08:18:10;;;;;;;12.70;3.60;;;5.60;99.90;;;;;;5082440;28;20044;-56
2022/01/15 08:20:36;;;;;;;8.68;3.38;;;5.50;99.90;;;;;;5076404;28;20449;-56
2022/01/15 08:23:01;;;;;;;16.70;5.15;;;5.40;99.90;;;;;;5075775;28;20041;-55
2022/01/15 08:25:27;;;;;;;11.32;4.07;;;6.20;99.90;;;;;;5074762;28;20072;-56
2022/01/15 08:27:53;;;;;;;10.02;4.38;;;5.50;99.90;;;;;;5073174;28;20500;-56
2022/01/15 08:30:20;;;;;;;15.75;5.40;;;5.70;99.90;;;;;;5074782;28;20043;-55
2022/01/15 08:32:46;;;;;;;19.42;6.15;;;5.50;99.90;;;;;;5074520;28;20052;-55
2022/01/15 08:35:12;;;;;;;17.30;6.88;;;6.30;99.90;;;;;;5073257;28;20047;-55
2022/01/15 08:37:38;;;;;;;25.80;8.48;;;5.30;99.90;;;;;;5078573;28;20067;-55
2022/01/15 08:40:13;;;;;;;17.00;7.18;;;6.20;99.90;;;;;;5095563;28;20498;-57
2022/01/15 08:42:39;;;;;;;16.73;6.95;;;5.30;99.90;;;;;;5096094;28;20040;-57
2022/01/15 08:45:07;;;;;;;23.92;9.15;;;5.50;99.90;;;;;;5096185;28;20028;-57
2022/01/15 08:47:33;;;;;;;23.20;8.93;;;5.40;99.90;;;;;;5095232;28;20115;-56
2022/01/15 08:50:00;;;;;;;19.90;8.98;;;5.50;99.90;;;;;;5087786;28;20139;-57
2022/01/15 08:52:26;;;;;;;21.73;8.77;;;5.60;99.90;;;;;;5082886;28;20040;-57
2022/01/15 08:54:51;;;;;;;26.60;10.10;;;5.50;99.90;;;;;;5106385;28;20533;-56
2022/01/15 08:57:17;;;;;;;25.48;10.10;;;5.50;99.90;;;;;;5085053;28;20043;-57
2022/01/15 08:59:43;;;;;;;27.65;10.82;;;5.60;99.90;;;;;;5084428;28;20036;-56
2022/01/15 09:02:10;;;;;;;26.10;11.68;;;5.50;99.90;;;;;;5083219;28;20390;-57
2022/01/15 09:04:36;;;;;;;25.80;11.02;;;5.50;99.90;;;;;;5085772;28;20032;-57
2022/01/15 09:07:02;;;;;;;35.63;15.07;;;5.70;99.90;;;;;;5084460;28;20384;-56
2022/01/15 09:09:28;;;;;;;38.63;15.50;;;5.50;99.90;;;;;;5082622;28;20044;-56
2022/01/15 09:11:54;;;;;;;39.17;15.45;;;5.70;99.90;;;;;;5084103;28;20044;-57
2022/01/15 09:14:20;;;;;;;32.17;13.73;;;5.60;99.90;;;;;;5085783;28;20043;-56
2022/01/15 09:16:45;;;;;;;32.38;15.05;;;5.70;99.90;;;;;;5083801;28;20050;-56
2022/01/15 09:19:11;;;;;;;37.03;14.10;;;5.70;99.90;;;;;;5085914;28;20044;-57
2022/01/15 09:21:37;;;;;;;22.75;11.50;;;6.20;99.90;;;;;;5085154;28;20497;-56
2022/01/15 09:24:03;;;;;;;29.95;13.50;;;5.80;99.90;;;;;;5084172;28;20463;-56
2022/01/15 09:26:47;;;;;;;28.48;10.90;;;5.70;99.90;;;;;;5079614;28;20037;-57
2022/01/15 09:32:04;;;;;;;21.00;9.75;;;5.60;99.90;;;;;;5074817;28;20051;-56
2022/01/15 09:34:32;;;;;;;24.42;11.40;;;5.60;99.90;;;;;;5073417;28;20048;-57
2022/01/15 09:37:00;;;;;;;25.63;11.23;;;5.80;99.90;;;;;;5074189;28;20487;-56
2022/01/15 09:39:26;;;;;;;24.08;11.98;;;5.60;99.90;;;;;;5092215;28;20044;-56
2022/01/15 09:41:54;;;;;;;25.77;11.95;;;5.80;99.90;;;;;;5093626;28;20039;-57
2022/01/15 09:44:21;;;;;;;27.30;12.30;;;6.60;99.90;;;;;;5077811;28;20032;-47
2022/01/15 09:46:47;;;;;;;28.55;12.68;;;5.90;99.90;;;;;;5074708;28;20051;-49
2022/01/15 09:49:18;;;;;;;36.30;13.68;;;5.80;99.90;;;;;;5073013;28;20024;-54
2022/01/15 09:51:45;;;;;;;23.88;12.18;;;6.00;99.90;;;;;;5070117;28;20039;-54
2022/01/15 09:54:13;;;;;;;27.90;12.02;;;5.90;99.90;;;;;;5075901;28;20174;-46
2022/01/15 09:56:39;;;;;;;21.80;11.02;;;6.00;99.90;;;;;;5073506;28;20150;-48
2022/01/15 09:59:05;;;;;;;27.10;11.77;;;6.10;99.90;;;;;;5073409;28;20143;-58
2022/01/15 10:01:31;;;;;;;21.88;11.07;;;6.00;99.90;;;;;;5073886;28;20044;-48
2022/01/15 10:03:58;;;;;;;22.65;10.27;;;6.00;99.90;;;;;;5070131;28;20094;-53
2022/01/15 10:06:24;;;;;;;19.73;9.88;;;6.00;99.90;;;;;;5072580;28;20051;-47
2022/01/15 10:09:00;;;;;;;20.13;10.27;;;6.00;99.90;;;;;;5070789;28;20078;-47
2022/01/15 10:11:48;;;;;;;20.45;11.00;;;6.80;99.90;;;;;;5072490;28;20052;-46
2022/01/15 10:14:30;;;;;;;19.85;9.73;;;6.90;99.90;;;;;;5070878;28;20036;-55
2022/01/15 10:16:58;;;;;;;21.13;10.52;;;6.00;99.90;;;;;;5072201;28;20115;-53
2022/01/15 10:19:32;;;;;;;17.70;9.15;;;6.20;99.90;;;;;;5073023;28;20067;-46
2022/01/15 10:22:09;;;;;;;16.60;9.52;;;5.80;99.90;;;;;;5073753;28;20175;-48
2022/01/15 10:24:37;;;;;;;18.98;9.75;;;5.80;99.90;;;;;;5070349;28;20466;-51
2022/01/15 10:27:24;;;;;;;19.27;9.98;;;6.10;99.90;;;;;;5073246;28;20482;-50
2022/01/15 10:29:55;;;;;;;19.48;10.00;;;5.90;99.90;;;;;;5071078;28;20044;-52
2022/01/15 10:32:22;;;;;;;19.23;10.43;;;6.00;99.90;;;;;;5073833;28;20031;-46
2022/01/15 10:34:48;;;;;;;18.17;10.05;;;7.10;99.90;;;;;;5072625;28;20458;-44
2022/01/15 10:37:16;;;;;;;22.85;14.43;;;6.20;99.90;;;;;;5071976;28;20063;-44
2022/01/15 10:40:00;;;;;;;21.13;14.98;;;6.00;99.90;;;;;;5070139;28;20067;-43
2022/01/15 10:42:26;;;;;;;28.50;20.00;;;5.90;99.90;;;;;;5072448;28;20063;-43
2022/01/15 10:44:54;;;;;;;25.30;19.58;;;6.00;99.90;;;;;;5071812;28;20036;-45
2022/01/15 10:47:24;;;;;;;26.38;20.88;;;6.40;99.90;;;;;;5071756;28;20037;-46
2022/01/15 10:49:50;;;;;;;28.55;22.65;;;6.40;99.90;;;;;;5072414;28;20032;-56
2022/01/15 10:52:23;;;;;;;32.55;22.20;;;6.00;99.90;;;;;;5070459;28;20622;-44
2022/01/15 10:55:10;;;;;;;26.88;21.30;;;6.20;99.90;;;;;;5071698;28;20085;-45
2022/01/15 10:57:41;;;;;;;27.90;20.58;;;5.90;99.90;;;;;;5071050;28;20072;-47
2022/01/15 11:00:24;;;;;;;26.67;19.60;;;5.90;99.90;;;;;;5078612;28;20090;-47
2022/01/15 11:02:51;;;;;;;;;;;6.10;99.90;;;;;;5072815;28;20102;-46
2022/01/15 11:05:30;;;;;;;25.90;20.45;;;6.10;99.90;;;;;;5072188;28;20022;-49
2022/01/15 11:08:20;;;;;;;30.08;20.42;;;5.90;99.90;;;;;;5071340;28;20130;-50
2022/01/15 11:10:51;;;;;;;23.13;17.70;;;5.90;99.90;;;;;;5070659;28;20060;-46
2022/01/15 11:13:21;;;;;;;27.60;20.00;;;5.90;99.90;;;;;;5072871;28;20048;-51
2022/01/15 11:15:50;;;;;;;31.08;21.33;;;6.00;99.90;;;;;;5072089;28;20181;-46
2022/01/15 11:18:25;;;;;;;30.30;20.05;;;6.40;99.90;;;;;;5074475;28;20032;-53
2022/01/15 11:20:54;;;;;;;30.48;20.05;;;6.00;99.90;;;;;;5071874;28;20063;-45
2022/01/15 11:23:21;;;;;;;30.45;19.90;;;6.10;99.90;;;;;;5070095;28;20401;-53
2022/01/15 11:25:49;;;;;;;29.50;18.05;;;6.30;99.90;;;;;;5070658;28;20153;-46
2022/01/15 11:28:19;;;;;;;27.52;18.27;;;5.80;99.90;;;;;;5070547;28;20048;-48
2022/01/15 11:30:46;;;;;;;31.77;19.45;;;6.00;99.90;;;;;;5071416;28;20111;-47
2022/01/15 11:33:12;;;;;;;33.10;20.23;;;6.00;99.90;;;;;;5071563;28;20512;-43
2022/01/15 11:35:44;;;;;;;31.00;18.52;;;6.50;99.90;;;;;;5069052;28;20036;-43
2022/01/15 11:38:10;;;;;;;35.80;21.50;;;6.00;99.90;;;;;;5070133;28;20076;-44
2022/01/15 11:40:46;;;;;;;39.30;21.92;;;6.80;99.90;;;;;;5073211;28;20055;-44
2022/01/15 11:43:33;;;;;;;39.33;21.98;;;6.10;99.90;;;;;;5071615;28;20051;-46
2022/01/15 11:46:04;;;;;;;38.65;21.65;;;6.00;99.90;;;;;;5073538;28;20040;-46
2022/01/15 11:48:35;;;;;;;37.20;21.77;;;6.20;99.90;;;;;;5071986;28;20484;-42
2022/01/15 11:51:18;;;;;;;40.72;23.05;;;6.40;99.90;;;;;;5071045;28;20048;-41
2022/01/15 11:53:48;;;;;;;37.50;22.45;;;6.00;99.90;;;;;;5074449;28;20040;-40
2022/01/15 11:56:18;;;;;;;38.03;22.42;;;5.90;99.90;;;;;;5074033;28;20036;-43
2022/01/15 11:58:45;;;;;;;35.45;21.38;;;6.20;99.90;;;;;;5075934;28;20110;-42
2022/01/15 12:01:39;;;;;;;40.67;23.05;;;6.00;99.90;;;;;;5077678;28;20032;-45
2022/01/15 12:04:25;;;;;;;34.88;21.55;;;5.90;99.90;;;;;;5074655;28;20032;-48
2022/01/15 12:07:04;;;;;;;34.95;20.85;;;6.60;99.90;;;;;;5075141;28;20040;-49
2022/01/15 12:09:39;;;;;;;40.92;24.08;;;6.60;99.90;;;;;;5075050;28;20060;-50
2022/01/15 12:12:34;;;;;;;38.53;23.92;;;6.00;99.90;;;;;;5074730;28;20178;-40
2022/01/15 12:15:05;;;;;;;37.70;22.25;;;6.20;99.90;;;;;;5067277;28;20052;-40
2022/01/15 12:17:44;;;;;;;45.88;23.45;;;5.80;99.90;;;;;;5076985;28;20124;-43
2022/01/15 12:20:25;;;;;;;36.33;21.13;;;5.80;99.90;;;;;;5081121;28;20051;-45
2022/01/15 12:23:32;;;;;;;36.25;20.88;;;5.70;99.90;;;;;;5075368;28;20052;-46
2022/01/15 12:25:58;;;;;;;39.53;20.95;;;5.80;99.90;;;;;;5052675;28;20048;-39
2022/01/15 12:28:27;;;;;;;36.83;21.17;;;5.80;99.90;;;;;;5081857;28;20493;-41
2022/01/15 12:30:56;;;;;;;32.03;19.58;;;5.90;99.90;;;;;;5075049;28;20126;-56
2022/01/15 12:33:22;;;;;;;30.08;17.85;;;5.90;99.90;;;;;;5076327;28;20113;-57
2022/01/15 12:35:51;;;;;;;29.08;19.40;;;6.90;99.90;;;;;;5079840;28;20090;-57
2022/01/15 12:38:25;;;;;;;29.30;18.58;;;6.00;99.90;;;;;;5075382;28;20040;-57
2022/01/15 12:41:04;;;;;;;24.92;16.73;;;5.70;99.90;;;;;;5077208;28;20067;-47
2022/01/15 12:43:34;;;;;;;28.55;17.50;;;5.70;99.90;;;;;;5078398;28;20086;-44
2022/01/15 12:46:03;;;;;;;26.58;16.73;;;5.70;99.90;;;;;;5076398;28;20446;-55
2022/01/15 12:48:31;;;;;;;25.60;17.83;;;6.30;99.90;;;;;;5071361;28;20060;-55
2022/01/15 12:51:02;;;;;;;24.70;16.80;;;5.90;99.90;;;;;;5072391;28;20091;-55
2022/01/15 12:53:50;;;;;;;25.27;16.73;;;5.60;99.90;;;;;;5076525;28;20037;-54
2022/01/15 12:56:20;;;;;;;23.73;15.90;;;5.80;99.90;;;;;;5075807;28;20361;-55
2022/01/15 12:58:46;;;;;;;21.77;15.57;;;5.80;99.90;;;;;;5076094;28;20043;-54
2022/01/15 13:01:20;;;;;;;23.80;16.17;;;5.80;99.90;;;;;;5073228;28;20044;-56
2022/01/15 13:03:45;;;;;;;22.00;15.65;;;6.00;99.90;;;;;;5074601;28;20040;-56
2022/01/15 13:06:11;;;;;;;23.33;14.70;;;5.60;99.90;;;;;;5072866;28;20035;-57
2022/01/15 13:08:41;;;;;;;18.63;14.55;;;5.70;99.90;;;;;;5074995;28;20060;-56
2022/01/15 13:13:44;;;;;;;29.63;19.45;;;5.50;99.90;;;;;;5073276;28;20516;-56
2022/01/15 13:16:26;;;;;;;24.73;17.30;;;6.40;99.90;;;;;;5072800;28;20032;-56